Time;durP1;ratioP1;P1;durP2;ratioP2;P2;SDS_P1;SDS_P2;PMS_P1;PMS_P2;Temp;Humidity;BMP_temperature;BMP_pressure;BME280_temperature;BME280_humidity;BME280_pressure;Samples;Min_cycle;Max_cycle;Signal;HPM_P1;HPM_P2
2023/09/03 00:00:38;;;;;;;42.53;19.65;;;;;;;19.42;100.00;101430.13;8416918;28;20081;-87
2023/09/03 00:04:39;;;;;;;32.28;18.25;;;;;;;19.21;100.00;101402.38;8421797;28;20051;-87
2023/09/03 00:08:39;;;;;;;34.30;17.30;;;;;;;19.15;100.00;101421.38;8428249;28;20998;-83
2023/09/03 00:12:40;;;;;;;35.28;17.92;;;;;;;19.12;100.00;101405.31;8415487;28;20044;-83
2023/09/03 00:16:40;;;;;;;36.20;18.25;;;;;;;18.96;100.00;101414.41;8426917;28;20097;-84
2023/09/03 00:21:08;;;;;;;36.22;18.88;;;;;;;19.00;100.00;101404.78;8422374;28;20071;-83
2023/09/03 00:25:09;;;;;;;45.45;19.73;;;;;;;19.18;100.00;101413.69;8436928;28;20066;-84
2023/09/03 00:29:09;;;;;;;39.65;19.63;;;;;;;19.16;100.00;101413.00;8437626;28;20042;-84
2023/09/03 00:33:10;;;;;;;41.58;19.55;;;;;;;19.15;100.00;101418.66;8425092;28;20043;-82
2023/09/03 00:37:10;;;;;;;42.95;21.00;;;;;;;18.97;100.00;101407.88;8421177;27;20034;-83
2023/09/03 00:41:11;;;;;;;43.88;21.67;;;;;;;18.71;100.00;101377.09;8427313;27;20042;-83
2023/09/03 00:45:12;;;;;;;47.60;21.02;;;;;;;18.83;100.00;101416.81;8401453;27;20036;-84
2023/09/03 00:49:19;;;;;;;48.53;22.10;;;;;;;18.83;100.00;101425.03;8443447;27;20044;-84
2023/09/03 00:53:20;;;;;;;47.40;22.27;;;;;;;18.69;100.00;101405.66;8443804;27;20097;-84
2023/09/03 00:57:22;;;;;;;47.28;21.42;;;;;;;18.67;100.00;101419.53;8441154;27;20040;-83
2023/09/03 01:01:23;;;;;;;52.83;21.73;;;;;;;18.62;100.00;101430.16;8431552;27;20327;-84
2023/09/03 01:05:23;;;;;;;49.83;23.15;;;;;;;18.62;100.00;101432.91;8413325;27;20059;-83
2023/09/03 01:09:24;;;;;;;49.13;22.85;;;;;;;18.67;100.00;101441.44;8429908;27;20042;-83
2023/09/03 01:13:30;;;;;;;50.25;23.98;;;;;;;18.72;100.00;101428.09;8426819;27;20562;-84
2023/09/03 01:17:45;;;;;;;51.03;23.48;;;;;;;18.43;100.00;101433.25;8423556;27;20035;-83
2023/09/03 01:21:57;;;;;;;55.13;23.33;;;;;;;18.50;100.00;101461.66;8454666;27;20035;-88
2023/09/03 01:40:46;;;;;;;54.90;23.23;;;;;;;18.24;100.00;101469.06;8278599;28;21031;-84
2023/09/03 01:44:47;;;;;;;55.70;24.38;;;;;;;18.24;100.00;101485.50;8204829;28;20034;-83
2023/09/03 01:49:13;;;;;;;52.13;23.45;;;;;;;18.15;100.00;101472.84;8268391;28;20064;-83
2023/09/03 01:53:19;;;;;;;57.28;23.98;;;;;;;17.98;100.00;101443.69;8266449;28;20510;-83
2023/09/03 01:57:27;;;;;;;60.70;25.65;;;;;;;17.93;100.00;101446.06;8238131;28;20041;-84
2023/09/03 02:01:30;;;;;;;57.03;24.17;;;;;;;18.00;100.00;101469.03;8265690;28;20172;-83
2023/09/03 02:05:31;;;;;;;56.88;25.65;;;;;;;18.05;100.00;101477.56;8284204;28;20052;-84
2023/09/03 02:09:32;;;;;;;61.00;25.10;;;;;;;18.18;100.00;101488.94;8281380;28;20501;-84
2023/09/03 02:13:32;;;;;;;62.80;25.98;;;;;;;18.17;100.00;101478.97;8298040;28;20053;-84
2023/09/03 02:17:33;;;;;;;51.70;23.83;;;;;;;17.90;100.00;101487.44;8268126;28;20112;-84
2023/09/03 02:21:34;;;;;;;57.15;24.83;;;;;;;17.88;100.00;101494.09;8269162;28;20049;-84
2023/09/03 02:25:34;;;;;;;63.58;26.40;;;;;;;17.87;100.00;101481.44;8281184;28;20052;-83
2023/09/03 02:29:35;;;;;;;64.43;27.15;;;;;;;17.86;100.00;101477.84;8283654;28;20041;-87
2023/09/03 02:33:36;;;;;;;61.33;25.70;;;;;;;17.86;100.00;101472.38;8264271;28;20052;-87
2023/09/03 02:37:37;;;;;;;64.70;26.98;;;;;;;17.72;100.00;101442.03;8285531;28;20528;-88
2023/09/03 02:41:38;;;;;;;63.58;25.88;;;;;;;17.85;100.00;101459.72;8258634;28;20126;-84
2023/09/03 02:45:38;;;;;;;66.40;27.00;;;;;;;17.86;100.00;101472.38;8238241;28;20440;-83
2023/09/03 02:49:39;;;;;;;59.13;25.50;;;;;;;17.72;100.00;101473.00;8229214;28;20052;-84
2023/09/03 02:53:41;;;;;;;68.20;28.17;;;;;;;17.90;100.00;101481.94;8254122;28;20041;-84
2023/09/03 02:57:41;;;;;;;66.95;28.67;;;;;;;18.08;100.00;101482.72;8247449;28;20391;-84
2023/09/03 03:01:42;;;;;;;66.43;26.67;;;;;;;17.93;100.00;101484.34;8257798;28;20159;-84
2023/09/03 03:05:43;;;;;;;57.70;24.95;;;;;;;17.67;100.00;101467.16;8272842;28;20035;-83
2023/09/03 03:09:48;;;;;;;55.72;25.60;;;;;;;17.81;100.00;101510.28;8261255;28;20061;-84
2023/09/03 03:13:52;;;;;;;53.20;24.45;;;;;;;17.80;100.00;101508.59;8253032;28;20502;-84
2023/09/03 03:17:54;;;;;;;50.67;24.00;;;;;;;17.76;100.00;101488.06;8243593;28;20049;-84
2023/09/03 03:21:54;;;;;;;59.30;23.83;;;;;;;17.52;100.00;101496.13;8242888;28;20505;-83
2023/09/03 03:25:55;;;;;;;60.80;24.90;;;;;;;17.34;100.00;101463.34;8222599;28;20125;-84
2023/09/03 03:29:56;;;;;;;61.63;26.95;;;;;;;17.56;100.00;101481.09;8273846;28;20121;-83
2023/09/03 03:33:57;;;;;;;64.53;26.88;;;;;;;17.61;100.00;101508.81;8253569;28;20048;-83
2023/09/03 03:38:01;;;;;;;61.57;28.23;;;;;;;17.92;100.00;101529.16;8241934;28;20026;-83
2023/09/03 03:42:02;;;;;;;66.88;25.75;;;;;;;17.69;100.00;101533.50;8262222;28;20045;-87
2023/09/03 03:46:05;;;;;;;54.13;24.30;;;;;;;17.43;100.00;101497.09;8242540;28;20038;-88
2023/09/03 03:50:06;;;;;;;55.67;24.00;;;;;;;17.32;100.00;101513.69;8282352;28;20077;-88
2023/09/03 03:54:06;;;;;;;69.07;29.48;;;;;;;17.27;100.00;101486.00;8237156;28;20045;-88
2023/09/03 03:58:09;;;;;;;74.28;30.65;;;;;;;17.39;100.00;101473.78;8255263;28;20132;-88
2023/09/03 04:02:09;;;;;;;73.07;30.55;;;;;;;17.57;100.00;101488.31;8269736;28;20042;-87
2023/09/03 04:06:10;;;;;;;72.43;29.65;;;;;;;17.42;100.00;101462.53;8231257;28;20522;-88
2023/09/03 04:10:10;;;;;;;71.72;29.33;;;;;;;17.59;100.00;101481.63;8253019;28;20034;-87
2023/09/03 04:14:11;;;;;;;77.40;29.98;;;;;;;17.34;100.00;101457.00;8253812;28;20089;-87
2023/09/03 04:18:11;;;;;;;66.28;28.88;;;;;;;17.46;100.00;101463.94;8231991;28;20030;-88
2023/09/03 04:22:12;;;;;;;65.20;28.02;;;;;;;17.36;100.00;101460.44;8263900;28;20073;-87
2023/09/03 04:26:13;;;;;;;68.63;30.00;;;;;;;17.30;100.00;101480.22;8249708;28;20042;-88
2023/09/03 04:30:19;;;;;;;71.32;30.65;;;;;;;17.46;100.00;101474.88;8250250;28;20485;-87
2023/09/03 04:34:20;;;;;;;83.57;33.58;;;;;;;17.39;100.00;101468.31;8255370;28;20420;-87
2023/09/03 04:38:21;;;;;;;87.15;34.58;;;;;;;17.38;100.00;101485.72;8243815;28;20029;-88
2023/09/03 04:42:21;;;;;;;81.63;30.63;;;;;;;17.35;100.00;101480.56;8256203;28;20129;-87
2023/09/03 04:46:22;;;;;;;63.63;26.20;;;;;;;17.13;100.00;101502.97;8235407;28;20034;-87
2023/09/03 04:50:23;;;;;;;69.97;27.80;;;;;;;17.23;100.00;101531.09;8254559;28;20446;-84
2023/09/03 04:54:24;;;;;;;77.25;28.40;;;;;;;17.28;100.00;101545.13;8236844;28;20506;-83
2023/09/03 04:58:25;;;;;;;85.95;26.08;;;;;;;17.27;100.00;101537.94;8226613;28;20441;-83
2023/09/03 05:02:27;;;;;;;80.05;28.73;;;;;;;17.03;100.00;101540.47;8236025;28;20133;-83
2023/09/03 05:06:27;;;;;;;89.05;31.52;;;;;;;17.22;100.00;101563.03;8255102;28;20046;-83
2023/09/03 05:10:31;;;;;;;105.45;33.75;;;;;;;17.31;100.00;101561.22;8239546;28;20052;-83
2023/09/03 05:14:32;;;;;;;115.47;31.52;;;;;;;17.41;100.00;101559.22;8238875;28;20030;-83
2023/09/03 05:18:33;;;;;;;96.72;33.78;;;;;;;17.52;100.00;101575.41;8243100;28;20038;-84
2023/09/03 05:22:34;;;;;;;94.10;33.00;;;;;;;17.58;100.00;101581.13;8238527;28;20050;-83
2023/09/03 05:26:36;;;;;;;91.88;33.05;;;;;;;17.56;100.00;101557.66;8238821;28;20044;-83
2023/09/03 05:30:38;;;;;;;83.68;33.80;;;;;;;17.69;100.00;101580.00;8253616;28;20046;-83
2023/09/03 05:34:39;;;;;;;97.78;36.35;;;;;;;17.81;100.00;101600.56;8237259;28;20046;-83
2023/09/03 05:38:42;;;;;;;125.82;36.17;;;;;;;17.85;100.00;101617.53;8255828;28;20127;-83
2023/09/03 05:42:43;;;;;;;121.50;36.03;;;;;;;17.77;100.00;101612.88;8245412;28;20093;-83
2023/09/03 05:46:44;;;;;;;132.93;36.13;;;;;;;17.82;100.00;101613.25;8240588;28;20093;-83
2023/09/03 05:50:44;;;;;;;132.48;38.85;;;;;;;17.92;100.00;101608.53;8253949;28;20030;-83
2023/09/03 05:54:47;;;;;;;123.45;36.70;;;;;;;17.91;100.00;101601.34;8226864;28;20042;-83
2023/09/03 05:58:48;;;;;;;134.35;38.15;;;;;;;17.97;100.00;101606.19;8240422;28;20034;-83
2023/09/03 06:02:48;;;;;;;140.15;39.72;;;;;;;18.01;100.00;101623.97;8252994;28;20060;-83
2023/09/03 06:06:51;;;;;;;128.23;37.30;;;;;;;17.91;100.00;101601.34;8252278;28;20042;-84
2023/09/03 06:10:56;;;;;;;132.65;39.00;;;;;;;18.05;100.00;101647.25;8238753;28;20526;-83
2023/09/03 06:14:56;;;;;;;103.97;36.55;;;;;;;18.01;100.00;101643.13;8255237;28;20035;-83
2023/09/03 06:18:57;;;;;;;138.48;35.38;;;;;;;18.00;100.00;101633.22;8240763;28;20072;-83
2023/09/03 06:22:57;;;;;;;118.57;37.67;;;;;;;18.09;100.00;101637.72;8255025;28;20085;-83
2023/09/03 06:26:58;;;;;;;115.32;37.08;;;;;;;18.21;100.00;101662.94;8255753;28;20092;-83
2023/09/03 06:31:00;;;;;;;98.18;35.13;;;;;;;18.13;100.00;101644.59;8257256;28;20093;-83
2023/09/03 06:35:01;;;;;;;100.10;37.38;;;;;;;18.24;100.00;101607.88;8226572;28;20034;-83
2023/09/03 06:39:03;;;;;;;97.72;35.50;;;;;;;18.43;100.00;101646.84;8239999;28;20034;-83
2023/09/03 06:43:03;;;;;;;103.22;37.72;;;;;;;18.42;100.00;101677.97;8256196;28;20065;-83
2023/09/03 06:47:04;;;;;;;102.97;39.55;;;;;;;18.47;100.00;101653.72;8257375;28;20046;-83
2023/09/03 06:51:09;;;;;;;83.93;36.88;;;;;;;18.63;100.00;101685.81;8238369;28;20050;-83
2023/09/03 06:55:10;;;;;;;91.88;35.97;;;;;;;18.56;100.00;101691.06;8238520;28;20037;-83
2023/09/03 06:59:11;;;;;;;95.43;37.35;;;;;;;18.66;100.00;101693.72;8243205;28;20062;-83
2023/09/03 07:03:11;;;;;;;90.80;36.72;;;;;;;18.72;100.00;101715.81;8256143;28;20042;-83
2023/09/03 07:07:11;;;;;;;98.10;35.63;;;;;;;18.65;100.00;101712.00;8238385;28;20092;-83
2023/09/03 07:11:14;;;;;;;94.45;32.40;;;;;;;18.45;100.00;101685.88;8252278;28;20319;-87
2023/09/03 07:15:15;;;;;;;84.45;35.97;;;;;;;18.74;100.00;101730.22;8295396;28;20038;-87
2023/09/03 07:19:16;;;;;;;91.00;37.67;;;;;;;18.53;100.00;101687.78;8283814;28;20477;-87
2023/09/03 07:23:16;;;;;;;76.90;35.03;;;;;;;18.90;100.00;101710.22;8228675;28;20030;-87
2023/09/03 07:27:16;;;;;;;84.03;36.03;;;;;;;19.11;100.00;101755.38;8275304;28;20108;-87
2023/09/03 07:31:17;;;;;;;73.55;34.47;;;;;;;18.98;100.00;101735.81;8243881;28;20042;-83
2023/09/03 07:35:17;;;;;;;63.00;31.25;;;;;;;18.96;100.00;101743.31;8277372;28;20524;-83
2023/09/03 07:39:18;;;;;;;74.85;31.88;;;;;;;18.91;100.00;101751.19;8222977;28;20042;-83
2023/09/03 07:43:19;;;;;;;64.03;31.05;;;;;;;18.78;100.00;101726.09;8242163;28;20066;-83
2023/09/03 07:47:20;;;;;;;71.65;33.55;;;;;;;19.15;100.00;101759.50;8239822;28;20050;-84
2023/09/03 07:51:21;;;;;;;68.22;32.38;;;;;;;19.04;100.00;101750.72;8236991;28;20565;-84
2023/09/03 07:55:21;;;;;;;68.65;33.50;;;;;;;19.10;100.00;101750.06;8218042;28;20057;-84
2023/09/03 07:59:22;;;;;;;75.30;32.15;;;;;;;19.10;100.00;101736.34;8237314;28;20042;-84
2023/09/03 08:03:31;;;;;;;72.75;33.38;;;;;;;19.18;100.00;101770.13;8254617;28;20331;-84
2023/09/03 08:07:31;;;;;;;73.63;33.78;;;;;;;19.28;100.00;101775.53;8257888;28;20129;-83
2023/09/03 08:11:32;;;;;;;71.18;32.63;;;;;;;19.29;100.00;101785.47;8273497;28;20374;-83
2023/09/03 08:15:32;;;;;;;86.47;35.35;;;;;;;19.24;100.00;101785.94;8241228;28;20145;-83
2023/09/03 08:19:34;;;;;;;77.18;34.03;;;;;;;19.26;100.00;101772.97;8254846;28;20041;-84
2023/09/03 08:23:35;;;;;;;75.25;34.50;;;;;;;19.30;100.00;101752.41;8233304;28;20045;-84
2023/09/03 08:27:35;;;;;;;89.28;36.38;;;;;;;19.60;100.00;101780.25;8258646;28;20050;-84
2023/09/03 08:31:36;;;;;;;86.40;38.70;;;;;;;19.58;100.00;101776.81;8234187;28;20062;-84
2023/09/03 08:35:37;;;;;;;91.10;37.45;;;;;;;19.71;100.00;101785.41;8236253;28;20049;-84
2023/09/03 08:39:37;;;;;;;82.20;38.05;;;;;;;19.77;100.00;101776.50;8253709;28;20049;-83
2023/09/03 08:43:39;;;;;;;89.38;38.35;;;;;;;19.90;100.00;101779.59;8251382;28;20554;-84
2023/09/03 08:47:41;;;;;;;58.90;28.30;;;;;;;20.67;100.00;101777.19;8261278;28;20528;-84
2023/09/03 08:51:42;;;;;;;62.50;30.85;;;;;;;21.29;100.00;101798.34;8257004;28;20049;-87
2023/09/03 08:55:43;;;;;;;75.25;36.17;;;;;;;20.86;100.00;101774.06;8260681;28;20109;-85
2023/09/03 08:59:43;;;;;;;75.07;37.70;;;;;;;20.77;100.00;101799.84;8217343;28;20053;-84
2023/09/03 09:03:46;;;;;;;85.15;39.90;;;;;;;20.76;100.00;101778.88;8250149;28;20038;-85
2023/09/03 09:07:48;;;;;;;75.18;35.80;;;;;;;21.14;100.00;101791.88;8267485;28;20037;-85
2023/09/03 09:12:01;;;;;;;76.82;37.28;;;;;;;20.92;100.00;101746.69;8236030;28;20521;-85
2023/09/03 09:16:01;;;;;;;75.93;35.95;;;;;;;21.04;100.00;101785.69;8261113;28;20036;-85
2023/09/03 09:20:03;;;;;;;74.63;37.05;;;;;;;20.73;100.00;101749.00;8268805;28;20230;-85
2023/09/03 09:24:05;;;;;;;73.90;36.65;;;;;;;21.16;100.00;101773.25;8233818;28;20393;-85
2023/09/03 09:28:11;;;;;;;62.47;33.50;;;;;;;21.77;100.00;101784.31;8237543;28;20145;-84
2023/09/03 09:32:19;;;;;;;68.03;35.10;;;;;;;22.13;100.00;101779.91;8248273;28;20038;-85
2023/09/03 09:36:19;;;;;;;66.03;33.53;;;;;;;21.98;99.80;101786.41;8255246;28;20042;-85
2023/09/03 09:40:30;;;;;;;71.78;37.03;;;;;;;22.43;100.00;101787.22;8246399;28;20553;-84
2023/09/03 09:44:30;;;;;;;67.10;34.67;;;;;;;23.65;90.98;101763.56;8246886;28;20042;-84
2023/09/03 09:48:31;;;;;;;63.88;33.22;;;;;;;24.68;86.52;101790.56;8236261;28;20153;-85
2023/09/03 09:52:36;;;;;;;67.35;32.67;;;;;;;25.15;82.50;101794.47;8255525;28;20073;-85
2023/09/03 09:56:37;;;;;;;65.32;31.42;;;;;;;26.13;76.67;101765.25;8254536;28;20395;-86
2023/09/03 10:00:39;;;;;;;61.20;30.83;;;;;;;27.05;73.14;101793.81;8257452;28;20125;-85
2023/09/03 10:04:43;;;;;;;62.92;31.17;;;;;;;26.65;74.56;101790.22;8239813;28;20146;-85
2023/09/03 10:08:45;;;;;;;67.90;33.87;;;;;;;25.91;75.46;101795.03;8251513;28;20050;-85
2023/09/03 10:12:45;;;;;;;73.68;33.97;;;;;;;25.55;77.14;101783.38;8257619;28;20526;-85
2023/09/03 10:16:46;;;;;;;71.32;33.28;;;;;;;26.06;77.13;101792.97;8258297;28;20413;-84
2023/09/03 10:20:49;;;;;;;69.32;32.63;;;;;;;27.04;71.39;101767.97;8256867;28;20045;-88
2023/09/03 10:24:56;;;;;;;75.63;33.25;;;;;;;27.87;68.03;101789.28;8277239;28;20041;-85
2023/09/03 10:29:03;;;;;;;69.18;33.25;;;;;;;28.40;67.59;101773.91;8250898;28;20048;-85
2023/09/03 10:33:06;;;;;;;65.80;32.83;;;;;;;28.48;65.88;101788.41;8256073;28;20057;-85
2023/09/03 10:37:09;;;;;;;61.10;30.13;;;;;;;28.11;67.15;101791.22;8257797;28;20026;-86
2023/09/03 10:41:20;;;;;;;61.75;30.83;;;;;;;28.34;66.94;101763.69;8241672;28;20409;-84
2023/09/03 10:45:21;;;;;;;61.72;30.48;;;;;;;28.93;64.21;101764.00;8242947;28;20052;-84
2023/09/03 10:49:22;;;;;;;64.45;29.83;;;;;;;28.95;62.05;101758.19;8238164;28;20043;-85
2023/09/03 10:53:43;;;;;;;63.35;31.30;;;;;;;29.58;62.13;101768.81;8275989;28;20037;-84
2023/09/03 10:57:45;;;;;;;60.85;27.77;;;;;;;29.08;61.24;101780.34;8237287;28;20060;-84
2023/09/03 11:01:46;;;;;;;56.40;25.77;;;;;;;30.28;58.79;101758.81;8255375;28;20117;-84
2023/09/03 11:06:26;;;;;;;50.92;22.52;;;;;;;30.02;56.15;101774.00;8225359;28;20042;-88
2023/09/03 11:10:39;;;;;;;56.15;26.05;;;;;;;28.64;59.57;101737.72;8263839;28;20057;-85
2023/09/03 11:14:41;;;;;;;65.50;25.83;;;;;;;29.19;58.91;101785.19;8247718;28;20540;-84
2023/09/03 11:18:49;;;;;;;55.67;25.05;;;;;;;29.44;58.21;101766.44;8271607;28;20422;-83
2023/09/03 11:22:50;;;;;;;51.25;21.88;;;;;;;29.32;56.36;101769.16;8237930;28;20046;-85
2023/09/03 11:27:06;;;;;;;50.90;24.75;;;;;;;30.14;56.57;101744.19;8256435;28;20537;-87
2023/09/03 11:31:06;;;;;;;50.83;24.27;;;;;;;30.21;56.31;101752.47;8238036;28;20335;-88
2023/09/03 11:35:07;;;;;;;46.72;22.75;;;;;;;30.67;53.88;101751.69;8258686;28;20046;-87
2023/09/03 11:39:14;;;;;;;40.47;21.63;;;;;;;30.59;53.47;101761.28;8239449;28;20375;-88
2023/09/03 11:43:15;;;;;;;34.75;19.58;;;;;;;30.12;54.93;101738.00;8257226;28;20053;-83
2023/09/03 11:47:16;;;;;;;34.70;18.20;;;;;;;30.25;54.38;101731.38;8235536;28;20049;-84
2023/09/03 11:51:26;;;;;;;32.72;17.83;;;;;;;29.90;53.17;101722.03;8222142;28;20038;-87
2023/09/03 11:55:34;;;;;;;27.80;15.63;;;;;;;29.49;54.57;101714.44;8245783;28;20124;-87
2023/09/03 11:59:35;;;;;;;24.67;14.45;;;;;;;29.84;54.85;101743.38;8239602;28;20072;-87
2023/09/03 12:03:38;;;;;;;23.88;14.02;;;;;;;29.17;54.36;101743.59;8236661;28;20049;-88
2023/09/03 12:07:39;;;;;;;25.80;15.30;;;;;;;28.46;56.92;101756.34;8236780;28;20046;-88
2023/09/03 12:11:40;;;;;;;26.90;14.95;;;;;;;28.39;58.42;101761.06;8270203;28;20042;-88
2023/09/03 12:15:40;;;;;;;24.42;13.70;;;;;;;27.31;59.54;101733.50;8218771;28;20449;-88
2023/09/03 12:19:41;;;;;;;19.17;11.55;;;;;;;27.13;57.95;101696.34;8231130;28;20509;-88
2023/09/03 12:23:45;;;;;;;20.65;11.88;;;;;;;26.44;60.35;101696.13;8210295;28;20871;-88
2023/09/03 12:27:49;;;;;;;22.57;12.77;;;;;;;26.84;61.89;101715.25;8254736;28;20041;-88
2023/09/03 12:31:49;;;;;;;22.45;14.02;;;;;;;26.83;60.70;101745.19;8244771;28;20046;-88
2023/09/03 12:36:11;;;;;;;21.92;13.25;;;;;;;26.31;61.38;101752.44;8230053;28;20042;-88
2023/09/03 12:40:13;;;;;;;19.77;12.52;;;;;;;26.83;61.05;101718.25;8242470;28;20127;-87
2023/09/03 12:44:15;;;;;;;17.92;11.18;;;;;;;26.66;60.44;101705.94;8231240;28;20629;-88
2023/09/03 12:48:15;;;;;;;18.05;11.15;;;;;;;26.79;60.69;101751.16;8237785;28;20046;-88
2023/09/03 12:52:16;;;;;;;18.55;11.15;;;;;;;26.25;60.77;101714.47;8254379;28;20054;-88
2023/09/03 12:56:16;;;;;;;14.95;9.38;;;;;;;25.76;58.43;101682.63;8213976;28;20122;-89
2023/09/03 13:00:17;;;;;;;13.75;8.82;;;;;;;25.60;59.45;101681.13;8252008;28;20104;-88
2023/09/03 13:04:17;;;;;;;11.60;7.47;;;;;;;26.03;58.57;101688.03;8260952;28;20037;-88
2023/09/03 13:08:18;;;;;;;11.73;7.85;;;;;;;26.18;58.87;101713.63;8228931;28;20042;-88
2023/09/03 13:12:19;;;;;;;8.30;5.32;;;;;;;26.23;57.26;101722.13;8249115;28;20045;-88
2023/09/03 13:16:20;;;;;;;6.32;4.55;;;;;;;26.43;56.87;101749.88;8240912;28;20042;-89
2023/09/03 13:20:21;;;;;;;9.63;5.70;;;;;;;25.99;56.06;101714.47;8235631;28;20174;-88
2023/09/03 13:24:21;;;;;;;7.13;4.45;;;;;;;26.51;57.03;101725.56;8211863;28;20124;-88
2023/09/03 13:28:22;;;;;;;6.10;5.00;;;;;;;26.43;57.91;101739.63;8238408;28;20469;-88
2023/09/03 13:32:22;;;;;;;5.32;4.68;;;;;;;26.03;58.35;101693.56;8237459;28;20042;-88
2023/09/03 13:36:23;;;;;;;4.32;3.60;;;;;;;26.37;57.76;101743.28;8195879;28;20113;-88
2023/09/03 13:40:24;;;;;;;5.65;3.63;;;;;;;26.15;56.25;101739.00;8228259;28;20126;-88
2023/09/03 13:44:24;;;;;;;5.72;4.18;;;;;;;26.27;56.47;101740.06;8243850;28;20039;-87
2023/09/03 13:48:25;;;;;;;7.13;4.10;;;;;;;26.34;59.13;101724.28;8229386;28;20578;-88
2023/09/03 13:52:27;;;;;;;5.47;3.85;;;;;;;26.28;59.07;101727.91;8211653;28;20044;-88
2023/09/03 13:56:28;;;;;;;4.57;3.60;;;;;;;26.10;59.23;101713.81;8236973;28;20120;-89
2023/09/03 14:00:28;;;;;;;5.28;3.90;;;;;;;26.09;59.90;101726.00;8260015;28;20033;-87
2023/09/03 14:04:29;;;;;;;4.15;3.75;;;;;;;26.19;61.30;101737.50;8259490;28;20048;-89
2023/09/03 14:08:30;;;;;;;5.63;4.32;;;;;;;26.24;60.62;101757.16;8247837;28;20082;-87
2023/09/03 14:12:31;;;;;;;8.00;4.38;;;;;;;25.99;60.41;101722.78;8234175;28;20046;-88
2023/09/03 14:16:34;;;;;;;4.97;3.97;;;;;;;25.81;59.69;101693.94;8205504;28;20066;-88
2023/09/03 14:20:36;;;;;;;6.45;4.28;;;;;;;25.97;61.73;101705.47;8200232;28;20042;-88
2023/09/03 14:24:37;;;;;;;5.68;4.13;;;;;;;25.88;60.80;101714.19;8237771;28;20129;-88
2023/09/03 14:28:37;;;;;;;3.75;3.33;;;;;;;26.05;60.53;101697.00;8249548;28;20042;-89
2023/09/03 14:32:38;;;;;;;4.32;3.10;;;;;;;25.81;60.19;101667.09;8221074;28;20043;-89
2023/09/03 14:36:39;;;;;;;4.00;3.00;;;;;;;25.98;61.44;101696.13;8233707;28;20030;-89
2023/09/03 14:40:39;;;;;;;4.82;3.50;;;;;;;25.84;60.18;101677.75;8230190;28;20104;-90
2023/09/03 14:44:40;;;;;;;4.82;3.13;;;;;;;25.84;59.17;101711.00;8246557;28;20050;-89
2023/09/03 14:48:40;;;;;;;4.25;2.72;;;;;;;25.94;60.07;101735.53;8253156;28;20046;-89
2023/09/03 14:52:41;;;;;;;3.88;2.97;;;;;;;25.54;60.47;101681.97;8252210;28;20112;-89
2023/09/03 14:56:42;;;;;;;3.45;3.15;;;;;;;25.74;60.69;101705.00;8256600;28;20426;-89
2023/09/03 15:00:42;;;;;;;4.25;2.92;;;;;;;25.53;60.20;101685.81;8230013;28;21876;-89
2023/09/03 15:04:46;;;;;;;3.58;2.45;;;;;;;25.57;60.06;101697.31;8229190;28;20038;-89
2023/09/03 15:08:47;;;;;;;3.35;2.28;;;;;;;25.54;59.63;101670.03;8247283;28;20042;-90
2023/09/03 15:12:48;;;;;;;3.40;2.22;;;;;;;25.61;59.32;101699.44;8249331;28;20092;-89
2023/09/03 15:16:49;;;;;;;6.80;2.78;;;;;;;25.48;59.98;101688.34;8247887;28;20502;-89
2023/09/03 15:20:52;;;;;;;2.40;2.20;;;;;;;25.40;62.87;101669.13;8235960;28;20050;-88
2023/09/03 15:24:53;;;;;;;3.00;2.00;;;;;;;25.35;60.79;101671.69;8229814;28;20058;-89
2023/09/03 15:28:53;;;;;;;2.70;1.85;;;;;;;25.35;59.71;101668.94;8245604;28;20053;-89
2023/09/03 15:32:55;;;;;;;2.47;2.00;;;;;;;25.53;59.87;101713.50;8254776;28;20038;-89
2023/09/03 15:36:55;;;;;;;3.28;2.35;;;;;;;25.33;61.31;101678.47;8252970;28;20044;-87
2023/09/03 15:40:56;;;;;;;2.72;2.10;;;;;;;25.42;60.88;101704.94;8261177;28;20038;-89
2023/09/03 15:44:56;;;;;;;3.25;2.38;;;;;;;25.31;62.05;101692.50;8260568;28;20505;-89
2023/09/03 15:49:00;;;;;;;2.95;2.28;;;;;;;25.39;61.60;101711.75;8242953;28;20069;-89
2023/09/03 15:53:01;;;;;;;3.72;2.28;;;;;;;25.21;61.27;101685.66;8221165;28;20493;-88
2023/09/03 15:57:01;;;;;;;2.90;2.58;;;;;;;25.33;60.93;101695.97;8238352;28;20461;-89
2023/09/03 16:01:05;;;;;;;3.00;2.58;;;;;;;25.60;60.08;101714.38;8240718;28;20057;-89
2023/09/03 16:05:06;;;;;;;2.93;2.10;;;;;;;25.57;60.76;101720.31;8241726;28;20045;-89
2023/09/03 16:09:06;;;;;;;3.33;2.28;;;;;;;25.19;60.73;101688.66;8233991;28;20281;-89
2023/09/03 16:13:07;;;;;;;3.33;2.50;;;;;;;25.16;61.98;101683.53;8242292;28;20037;-89
2023/09/03 16:17:36;;;;;;;4.70;2.92;;;;;;;25.15;62.95;101676.25;8246269;28;20510;-89
2023/09/03 16:21:39;;;;;;;4.88;3.03;;;;;;;25.22;62.69;101674.38;8270001;28;20042;-90
2023/09/03 16:25:40;;;;;;;4.20;2.40;;;;;;;25.08;62.90;101675.41;8222446;28;20590;-89
2023/09/03 16:29:41;;;;;;;3.90;3.08;;;;;;;25.23;63.61;101681.63;8238077;28;20046;-89
2023/09/03 16:33:44;;;;;;;4.00;2.63;;;;;;;25.02;63.52;101666.00;8250186;28;20518;-89
2023/09/03 16:37:45;;;;;;;4.32;2.70;;;;;;;25.12;64.12;101709.91;8249053;28;20453;-89
2023/09/03 16:41:45;;;;;;;3.25;2.80;;;;;;;24.78;65.09;101657.38;8253565;28;20040;-90
2023/09/03 16:45:46;;;;;;;3.58;3.00;;;;;;;25.12;65.13;101714.59;8256378;28;20035;-90
2023/09/03 16:49:50;;;;;;;6.20;3.72;;;;;;;24.85;67.08;101685.91;8225758;28;20041;-90
2023/09/03 16:53:51;;;;;;;3.10;2.67;;;;;;;24.75;67.41;101677.16;8259318;28;20042;-89
2023/09/03 16:57:51;;;;;;;6.05;3.65;;;;;;;24.87;67.63;101708.72;8239452;28;20089;-91
2023/09/03 17:01:52;;;;;;;4.90;4.05;;;;;;;24.88;70.22;101694.69;8235803;28;20038;-90
2023/09/03 17:05:53;;;;;;;5.22;3.47;;;;;;;24.70;71.80;101676.94;8244598;28;20041;-91
2023/09/03 17:09:54;;;;;;;4.88;3.88;;;;;;;24.65;71.81;101696.03;8249363;28;20048;-90
2023/09/03 17:13:55;;;;;;;5.25;3.63;;;;;;;24.62;72.90;101701.94;8260727;28;20060;-91
2023/09/03 17:17:55;;;;;;;5.35;4.28;;;;;;;24.45;72.10;101673.75;8260353;28;20037;-91
2023/09/03 17:21:56;;;;;;;5.10;3.65;;;;;;;24.27;71.65;101651.28;8237191;28;20101;-90
2023/09/03 17:25:57;;;;;;;5.95;4.00;;;;;;;24.12;75.37;101649.69;8236656;28;20636;-91
2023/09/03 17:29:57;;;;;;;4.50;4.03;;;;;;;24.29;75.19;101698.94;8237807;28;20042;-91
2023/09/03 17:33:58;;;;;;;4.10;3.70;;;;;;;24.16;76.67;101673.13;8248885;28;20166;-91
2023/09/03 17:37:59;;;;;;;5.47;4.05;;;;;;;24.28;76.18;101704.69;8251322;28;20129;-90
2023/09/03 17:42:00;;;;;;;5.30;4.28;;;;;;;24.13;76.39;101713.06;8221308;28;20034;-90
2023/09/03 17:46:00;;;;;;;5.00;4.30;;;;;;;23.96;77.52;101691.41;8234762;28;20035;-89
2023/09/03 17:50:01;;;;;;;7.68;4.28;;;;;;;23.79;76.92;101678.91;8259537;28;20034;-90
2023/09/03 17:54:01;;;;;;;5.50;4.00;;;;;;;23.62;79.90;101691.28;8232438;28;20549;-90
2023/09/03 17:58:02;;;;;;;5.78;4.07;;;;;;;23.37;84.03;101681.66;8261237;28;20073;-90
2023/09/03 18:02:04;;;;;;;4.82;4.05;;;;;;;23.08;83.97;101672.38;8239760;28;20517;-90
2023/09/03 18:06:07;;;;;;;6.00;4.07;;;;;;;23.06;82.94;101691.03;8232312;28;20386;-90
2023/09/03 18:10:08;;;;;;;8.60;4.55;;;;;;;22.90;82.69;101682.97;8237931;28;20045;-91
2023/09/03 18:14:08;;;;;;;5.13;4.05;;;;;;;23.10;82.40;101697.88;8266173;28;20034;-90
2023/09/03 18:18:09;;;;;;;6.25;4.35;;;;;;;22.72;82.94;101649.41;8253561;28;20092;-90
2023/09/03 18:22:10;;;;;;;5.60;4.18;;;;;;;22.78;82.07;101687.25;8218175;28;20425;-89
2023/09/03 18:26:11;;;;;;;4.32;3.85;;;;;;;22.79;79.35;101686.22;8261127;28;20034;-90
2023/09/03 18:30:11;;;;;;;6.53;4.00;;;;;;;22.97;78.29;101711.50;8251475;28;20037;-90
2023/09/03 18:34:12;;;;;;;10.95;4.20;;;;;;;22.96;78.66;101712.56;8234116;28;20034;-90